Flight Track Log - Related Links

Times and Time Zones

All times are in EDT time to prevent confusion due to time zone crossing. See the C-GMWT flight status page for this flight to view local times or setup timezone preferences in your user account.

Time Position Orientation Groundspeed Altitude Reporting Facility
EDT Latitude Longitude Course Direction KTS MPH feet Rate Location/Type
Wed 05:41:21 PM 48.3500 -89.2667 69° East 140 161 800  Level Winnipeg Center
Wed 05:42:21 PM 48.3667 -89.2000 45° Northeast 160 184 2,100 1,250 Climbing Winnipeg Center
Wed 05:43:21 PM 48.4000 -89.1500 360° North 170 196 3,300 1,150 Climbing Winnipeg Center
Wed 05:44:21 PM 48.4500 -89.1500 348° North 190 219 4,400 1,300 Climbing Winnipeg Center
Wed 05:45:21 PM 48.5000 -89.1667 348° North 180 207 5,900 1,150 Climbing Winnipeg Center
Wed 05:46:21 PM 48.5500 -89.1833 348° North 180 207 6,700 900 Climbing Winnipeg Center
Wed 05:47:21 PM 48.6000 -89.2000 12° North 180 207 7,700 950 Climbing Winnipeg Center
Wed 05:48:21 PM 48.6500 -89.1833 348° North 180 207 8,600 850 Climbing Winnipeg Center
Wed 05:49:21 PM 48.7000 -89.2000 348° North 180 207 9,400 750 Climbing Winnipeg Center
Wed 05:50:21 PM 48.7500 -89.2167 348° North 180 207 10,100 700 Climbing Winnipeg Center
Wed 05:51:21 PM 48.8000 -89.2333 351° North 190 219 10,800 750 Climbing Winnipeg Center
Wed 05:52:21 PM 48.8667 -89.2500 348° North 190 219 11,600 750 Climbing Winnipeg Center
Wed 05:53:21 PM 48.9167 -89.2667 348° North 190 219 12,300 650 Climbing Winnipeg Center
Wed 05:54:21 PM 48.9667 -89.2833 360° North 190 219 12,900 650 Climbing Winnipeg Center
Wed 05:55:21 PM 49.0167 -89.2833 348° North 190 219 13,600 650 Climbing Winnipeg Center
Wed 05:56:21 PM 49.0667 -89.3000 348° North 190 219 14,200 550 Climbing Winnipeg Center
Wed 05:57:21 PM 49.1167 -89.3167 348° North 190 219 14,700 500 Climbing Winnipeg Center
Wed 05:58:21 PM 49.1667 -89.3333 348° North 190 219 15,200 550 Climbing Winnipeg Center
Wed 05:59:21 PM 49.2167 -89.3500 348° North 190 219 15,800 650 Climbing Winnipeg Center
Wed 06:00:21 PM 49.2667 -89.3667 348° North 200 230 16,500 650 Climbing Winnipeg Center
Wed 06:01:21 PM 49.3167 -89.3833 348° North 190 219 17,100 550 Climbing Winnipeg Center
Wed 06:02:21 PM 49.3667 -89.4000 360° North 190 219 17,600 550 Climbing Winnipeg Center
Wed 06:03:21 PM 49.4167 -89.4000 348° North 190 219 18,200 550 Climbing Winnipeg Center
Wed 06:04:21 PM 49.4667 -89.4167 351° North 190 219 18,700 450 Climbing Winnipeg Center
Wed 06:05:21 PM 49.5333 -89.4333 348° North 190 219 19,100 450 Climbing Winnipeg Center
Wed 06:06:21 PM 49.5833 -89.4500 348° North 190 219 19,600 400 Climbing Winnipeg Center
Wed 06:07:21 PM 49.6333 -89.4667 348° North 190 219 19,900 200 Climbing Winnipeg Center
Wed 06:08:21 PM 49.6833 -89.4833 351° North 190 219 20,000 50 Climbing Winnipeg Center
Wed 06:09:21 PM 49.7500 -89.5000 348° North 200 230 20,000  Level Winnipeg Center
Wed 06:10:21 PM 49.8000 -89.5167 348° North 210 242 20,000  Level Winnipeg Center
Wed 06:11:21 PM 49.8500 -89.5333 351° North 210 242 20,000  Level Winnipeg Center
Wed 06:12:21 PM 49.9167 -89.5500 348° North 220 253 20,000  Level Winnipeg Center
Wed 06:13:21 PM 49.9667 -89.5667 351° North 220 253 20,000  Level Winnipeg Center
Wed 06:14:21 PM 50.0333 -89.5833 348° North 220 253 20,000  Level Winnipeg Center
Wed 06:15:21 PM 50.0833 -89.6000 353° North 220 253 20,000  Level Winnipeg Center
Wed 06:16:21 PM 50.1667 -89.6167 351° North 230 265 20,000  Level Winnipeg Center
Wed 06:17:21 PM 50.2333 -89.6333 351° North 220 253 20,000  Level Winnipeg Center
Wed 06:18:21 PM 50.3000 -89.6500 348° North 230 265 20,000  Level Winnipeg Center
Wed 06:19:21 PM 50.3500 -89.6667 351° North 230 265 20,000  Level Winnipeg Center
Wed 06:20:21 PM 50.4167 -89.6833 348° North 230 265 20,000  Level Winnipeg Center
Wed 06:21:21 PM 50.4667 -89.7000 351° North 230 265 20,000  Level Winnipeg Center
Wed 06:22:21 PM 50.5333 -89.7167 351° North 230 265 20,000  Level Winnipeg Center
Wed 06:23:21 PM 50.6000 -89.7333 348° North 230 265 20,000  Level Winnipeg Center
Wed 06:24:21 PM 50.6500 -89.7500 351° North 230 265 20,000  Level Winnipeg Center
Wed 06:25:21 PM 50.7167 -89.7667 351° North 230 265 20,000  Level Winnipeg Center
Wed 06:26:21 PM 50.7833 -89.7833 351° North 230 265 20,000  Level Winnipeg Center
Wed 06:27:21 PM 50.8500 -89.8000 351° North 240 276 20,000  Level Winnipeg Center
Wed 06:28:21 PM 50.9167 -89.8167 335° Northwest 230 265 20,000  Level Winnipeg Center
Wed 06:29:21 PM 50.9833 -89.8667 351° North 240 276 20,000  Level Winnipeg Center
Wed 06:30:21 PM 51.0500 -89.8833 360° North 230 265 20,000  Level Winnipeg Center
Wed 06:31:21 PM 51.1167 -89.8833 337° Northwest 240 276 20,000  Level Winnipeg Center
Wed 06:32:21 PM 51.1667 -89.9167 351° North 240 276 20,000  Level Winnipeg Center
Wed 06:33:21 PM 51.2333 -89.9333 351° North 230 265 20,000  Level Winnipeg Center
Wed 06:34:21 PM 51.3000 -89.9500 351° North 240 276 20,000  Level Winnipeg Center
Wed 06:35:21 PM 51.3667 -89.9667 348° North 240 276 20,000  Level Winnipeg Center
Wed 06:36:21 PM 51.4167 -89.9833 353° North 240 276 20,000  Level Winnipeg Center
Wed 06:37:21 PM 51.5000 -90.0000 343° North 240 276 20,000  Level Winnipeg Center
Wed 06:38:21 PM 51.5667 -90.0333 351° North 240 276 20,000  Level Winnipeg Center
Wed 06:39:21 PM 51.6333 -90.0500 351° North 230 265 20,000  Level Winnipeg Center
Wed 06:40:21 PM 51.7000 -90.0667 351° North 240 276 20,000  Level Winnipeg Center
Wed 06:41:21 PM 51.7667 -90.0833 351° North 250 288 20,000 -700 Level Winnipeg Center
Wed 06:42:21 PM 51.8333 -90.1000 345° North 250 288 18,600 -1,400 Descending Winnipeg Center
Wed 06:50:02 PM 52.2424 -90.2744 351° North  Level FlightAware Approximate
Wed 06:51:02 PM 52.2993 -90.2883 351° North  Level FlightAware Approximate
Wed 06:52:02 PM 52.3563 -90.3022 348° North  Level FlightAware Approximate
Wed 06:53:02 PM 52.4122 -90.3224 353° North  Level FlightAware Approximate
Wed 06:54:02 PM 52.4694 -90.3339 353° North  Level FlightAware Approximate
Wed 06:55:02 PM 52.5266 -90.3453 350° North  Level FlightAware Approximate
Wed 06:56:02 PM 52.5833 -90.3611 350° North  Level FlightAware Approximate

Login

Don't have an account? Register now (free) for customized features, flight alerts, and more!